createdAt,value
2022-11-19T00:01:39.000Z,1003.8
2022-11-19T00:02:50.000Z,1003.8
2022-11-19T00:04:02.000Z,1003.9
2022-11-19T00:05:15.000Z,1003.9
2022-11-19T00:06:27.000Z,1003.9
2022-11-19T00:07:39.000Z,1003.9
2022-11-19T00:08:51.000Z,1003.9
2022-11-19T00:10:03.000Z,1003.9
2022-11-19T00:11:15.000Z,1003.9
2022-11-19T00:12:28.000Z,1003.9
2022-11-19T00:13:40.000Z,1003.8
2022-11-19T00:14:52.000Z,1003.9
2022-11-19T00:16:04.000Z,1003.9
2022-11-19T00:17:16.000Z,1003.8
2022-11-19T00:18:29.000Z,1003.8
2022-11-19T00:19:40.000Z,1003.8
2022-11-19T00:20:52.000Z,1003.9
2022-11-19T00:22:04.000Z,1003.9
2022-11-19T00:23:16.000Z,1003.9
2022-11-19T00:24:29.000Z,1003.8
2022-11-19T00:25:41.000Z,1003.8
2022-11-19T00:26:53.000Z,1003.9
2022-11-19T00:28:05.000Z,1003.9
2022-11-19T00:29:17.000Z,1003.9
2022-11-19T00:30:29.000Z,1003.9
2022-11-19T00:31:42.000Z,1004
2022-11-19T00:32:54.000Z,1004
2022-11-19T00:34:06.000Z,1004
2022-11-19T00:35:17.000Z,1004.1
2022-11-19T00:36:29.000Z,1004.1
2022-11-19T00:37:42.000Z,1004.2
2022-11-19T00:38:54.000Z,1004.1
2022-11-19T00:40:06.000Z,1004.2
2022-11-19T00:41:18.000Z,1004.2
2022-11-19T00:42:30.000Z,1004.2
2022-11-19T00:43:43.000Z,1004.2
2022-11-19T00:44:55.000Z,1004.2
2022-11-19T00:46:07.000Z,1004.2
2022-11-19T00:47:19.000Z,1004.1
2022-11-19T00:48:31.000Z,1004.2
2022-11-19T00:49:43.000Z,1004.1
2022-11-19T00:50:55.000Z,1004.1
2022-11-19T00:52:07.000Z,1004.2
2022-11-19T00:53:19.000Z,1004.1
2022-11-19T00:54:31.000Z,1004.1
2022-11-19T00:55:43.000Z,1004.1
2022-11-19T00:56:56.000Z,1004.1
2022-11-19T00:58:08.000Z,1004.1
2022-11-19T00:59:20.000Z,1004.2
2022-11-19T01:00:32.000Z,1004.1
2022-11-19T01:01:44.000Z,1004.1
2022-11-19T01:02:57.000Z,1004.2
2022-11-19T01:04:09.000Z,1004.2
2022-11-19T01:05:21.000Z,1004.3
2022-11-19T01:06:32.000Z,1004.3
2022-11-19T01:07:44.000Z,1004.2
2022-11-19T01:08:56.000Z,1004.2
2022-11-19T01:10:09.000Z,1004.2
2022-11-19T01:11:21.000Z,1004.2
2022-11-19T01:12:33.000Z,1004.2
2022-11-19T01:13:45.000Z,1004.2
2022-11-19T01:14:57.000Z,1004.2
2022-11-19T01:16:10.000Z,1004.2
2022-11-19T01:17:22.000Z,1004.2
2022-11-19T01:18:34.000Z,1004.1
2022-11-19T01:19:46.000Z,1004.2
2022-11-19T01:20:58.000Z,1004.2
2022-11-19T01:22:10.000Z,1004.2
2022-11-19T01:23:22.000Z,1004.2
2022-11-19T01:24:34.000Z,1004.2
2022-11-19T01:25:46.000Z,1004.3
2022-11-19T01:26:58.000Z,1004.3
2022-11-19T01:28:10.000Z,1004.3
2022-11-19T01:29:23.000Z,1004.2
2022-11-19T01:30:35.000Z,1004.3
2022-11-19T01:31:47.000Z,1004.2
2022-11-19T01:32:59.000Z,1004.3
2022-11-19T01:34:11.000Z,1004.3
2022-11-19T01:35:24.000Z,1004.3
2022-11-19T01:36:36.000Z,1004.3
2022-11-19T01:37:47.000Z,1004.3
2022-11-19T01:38:59.000Z,1004.3
2022-11-19T01:40:11.000Z,1004.3
2022-11-19T01:41:24.000Z,1004.3
2022-11-19T01:42:36.000Z,1004.3
2022-11-19T01:43:48.000Z,1004.3
2022-11-19T01:45:00.000Z,1004.3
2022-11-19T01:46:12.000Z,1004.3
2022-11-19T01:47:24.000Z,1004.3
2022-11-19T01:48:37.000Z,1004.3
2022-11-19T01:49:49.000Z,1004.3
2022-11-19T01:51:01.000Z,1004.3
2022-11-19T01:52:13.000Z,1004.3
2022-11-19T01:53:24.000Z,1004.3
2022-11-19T01:54:37.000Z,1004.4
2022-11-19T01:55:49.000Z,1004.3
2022-11-19T01:57:01.000Z,1004.4
2022-11-19T01:58:13.000Z,1004.3
2022-11-19T01:59:25.000Z,1004.3
2022-11-19T02:00:38.000Z,1004.3
2022-11-19T02:01:50.000Z,1004.3
2022-11-19T02:03:02.000Z,1004.3
2022-11-19T02:04:14.000Z,1004.3
2022-11-19T02:05:26.000Z,1004.3
2022-11-19T02:06:38.000Z,1004.3
2022-11-19T02:07:51.000Z,1004.3
2022-11-19T02:09:02.000Z,1004.2
2022-11-19T02:10:14.000Z,1004.3
2022-11-19T02:11:26.000Z,1004.3
2022-11-19T02:12:38.000Z,1004.3
2022-11-19T02:13:51.000Z,1004.2
2022-11-19T02:15:03.000Z,1004.3
2022-11-19T02:16:15.000Z,1004.3
2022-11-19T02:17:27.000Z,1004.3
2022-11-19T02:18:39.000Z,1004.3
2022-11-19T02:19:52.000Z,1004.3
2022-11-19T02:21:04.000Z,1004.4
2022-11-19T02:22:16.000Z,1004.3
2022-11-19T02:23:28.000Z,1004.4
2022-11-19T02:24:39.000Z,1004.3
2022-11-19T02:25:51.000Z,1004.3
2022-11-19T02:27:04.000Z,1004.3
2022-11-19T02:28:16.000Z,1004.3
2022-11-19T02:29:28.000Z,1004.3
2022-11-19T02:30:40.000Z,1004.3
2022-11-19T02:31:52.000Z,1004.2
2022-11-19T02:33:05.000Z,1004.2
2022-11-19T02:34:17.000Z,1004.2
2022-11-19T02:35:29.000Z,1004.2
2022-11-19T02:36:41.000Z,1004.2
2022-11-19T02:37:53.000Z,1004.3
2022-11-19T02:39:06.000Z,1004.3
2022-11-19T02:40:17.000Z,1004.3
2022-11-19T02:41:29.000Z,1004.3
2022-11-19T02:42:41.000Z,1004.3
2022-11-19T02:43:53.000Z,1004.3
2022-11-19T02:45:05.000Z,1004.3
2022-11-19T02:46:18.000Z,1004.4
2022-11-19T02:47:30.000Z,1004.4
2022-11-19T02:48:42.000Z,1004.4
2022-11-19T02:49:54.000Z,1004.4
2022-11-19T02:51:06.000Z,1004.4
2022-11-19T02:52:19.000Z,1004.4
2022-11-19T02:53:31.000Z,1004.4
2022-11-19T02:54:43.000Z,1004.4
2022-11-19T02:55:54.000Z,1004.4
2022-11-19T02:57:06.000Z,1004.5
2022-11-19T02:58:19.000Z,1004.4
2022-11-19T02:59:31.000Z,1004.4
2022-11-19T03:00:43.000Z,1004.4
2022-11-19T03:01:55.000Z,1004.5
2022-11-19T03:03:07.000Z,1004.5
2022-11-19T03:04:19.000Z,1004.5
2022-11-19T03:05:32.000Z,1004.6
2022-11-19T03:06:44.000Z,1004.6
2022-11-19T03:07:56.000Z,1004.6
2022-11-19T03:09:08.000Z,1004.6
2022-11-19T03:10:20.000Z,1004.7
2022-11-19T03:11:32.000Z,1004.6
2022-11-19T03:12:44.000Z,1004.7
2022-11-19T03:13:56.000Z,1004.7
2022-11-19T03:15:08.000Z,1004.7
2022-11-19T03:16:20.000Z,1004.7
2022-11-19T03:17:33.000Z,1004.8
2022-11-19T03:18:45.000Z,1004.7
2022-11-19T03:21:09.000Z,1004.8
2022-11-19T03:22:21.000Z,1004.8
2022-11-19T03:23:33.000Z,1004.8
2022-11-19T03:24:46.000Z,1004.8
2022-11-19T03:25:58.000Z,1004.8
2022-11-19T03:27:09.000Z,1004.8
2022-11-19T03:28:21.000Z,1004.8
2022-11-19T03:29:33.000Z,1004.9
2022-11-19T03:30:46.000Z,1004.9
2022-11-19T03:31:57.000Z,1004.8
2022-11-19T03:33:09.000Z,1004.9
2022-11-19T03:34:21.000Z,1004.9
2022-11-19T03:35:33.000Z,1004.9
2022-11-19T03:36:46.000Z,1004.9
2022-11-19T03:39:10.000Z,1004.9
2022-11-19T03:40:22.000Z,1004.9
2022-11-19T03:41:34.000Z,1005
2022-11-19T03:42:46.000Z,1004.9
2022-11-19T03:43:59.000Z,1004.9
2022-11-19T03:45:11.000Z,1004.9
2022-11-19T03:46:23.000Z,1005
2022-11-19T03:47:34.000Z,1005
2022-11-19T03:48:46.000Z,1004.9
2022-11-19T03:49:59.000Z,1005
2022-11-19T03:51:11.000Z,1005
2022-11-19T03:52:23.000Z,1004.9
2022-11-19T03:53:35.000Z,1004.9
2022-11-19T03:54:47.000Z,1005
2022-11-19T03:56:00.000Z,1005
2022-11-19T03:57:12.000Z,1005
2022-11-19T03:58:24.000Z,1004.9
2022-11-19T03:59:36.000Z,1005
2022-11-19T04:00:48.000Z,1005
2022-11-19T04:02:00.000Z,1005
2022-11-19T04:03:12.000Z,1004.9
2022-11-19T04:05:36.000Z,1005
2022-11-19T04:06:48.000Z,1005
2022-11-19T04:08:00.000Z,1005
2022-11-19T04:09:13.000Z,1005
2022-11-19T04:10:25.000Z,1005
2022-11-19T04:11:37.000Z,1005
2022-11-19T04:12:49.000Z,1005
2022-11-19T04:14:01.000Z,1005.1
2022-11-19T04:15:14.000Z,1005.1
2022-11-19T04:16:26.000Z,1005.1
2022-11-19T04:17:38.000Z,1005.1
2022-11-19T04:18:49.000Z,1005.1
2022-11-19T04:20:01.000Z,1005.1
2022-11-19T04:21:13.000Z,1005
2022-11-19T04:22:26.000Z,1005.1
2022-11-19T04:23:38.000Z,1005.1
2022-11-19T04:24:50.000Z,1005.1
2022-11-19T04:26:02.000Z,1005.1
2022-11-19T04:27:14.000Z,1005
2022-11-19T04:28:27.000Z,1005.1
2022-11-19T04:29:39.000Z,1005.1
2022-11-19T04:30:51.000Z,1005.1
2022-11-19T04:32:03.000Z,1005.1
2022-11-19T04:33:15.000Z,1005.1
2022-11-19T04:34:27.000Z,1005.1
2022-11-19T04:36:51.000Z,1005
2022-11-19T04:38:03.000Z,1005
2022-11-19T04:39:15.000Z,1005
2022-11-19T04:40:27.000Z,1005
2022-11-19T04:41:40.000Z,1005
2022-11-19T04:45:16.000Z,1005
2022-11-19T04:46:27.000Z,1005
2022-11-19T04:47:39.000Z,1005.1
2022-11-19T04:48:50.000Z,1005
2022-11-19T04:50:01.000Z,1005
2022-11-19T04:51:12.000Z,1005.1
2022-11-19T04:52:24.000Z,1005
2022-11-19T04:53:37.000Z,1005
2022-11-19T04:54:48.000Z,1005
2022-11-19T04:55:59.000Z,1005
2022-11-19T04:57:11.000Z,1005
2022-11-19T04:58:23.000Z,1004.9
2022-11-19T04:59:36.000Z,1005
2022-11-19T05:00:48.000Z,1005
2022-11-19T05:02:00.000Z,1004.9
2022-11-19T05:03:12.000Z,1005
2022-11-19T05:04:24.000Z,1005
2022-11-19T05:05:37.000Z,1004.9
2022-11-19T05:06:49.000Z,1004.9
2022-11-19T05:08:00.000Z,1004.9
2022-11-19T05:09:11.000Z,1004.9
2022-11-19T05:10:23.000Z,1004.9
2022-11-19T05:11:35.000Z,1004.9
2022-11-19T05:12:48.000Z,1004.9
2022-11-19T05:14:00.000Z,1004.9
2022-11-19T05:15:12.000Z,1004.9
2022-11-19T05:16:24.000Z,1005
2022-11-19T05:17:36.000Z,1005
2022-11-19T05:18:49.000Z,1004.9
2022-11-19T05:20:01.000Z,1005
2022-11-19T05:21:13.000Z,1005
2022-11-19T05:22:25.000Z,1005
2022-11-19T05:23:37.000Z,1005
2022-11-19T05:24:49.000Z,1005
2022-11-19T05:26:01.000Z,1005
2022-11-19T05:27:13.000Z,1005
2022-11-19T05:28:25.000Z,1005
2022-11-19T05:29:37.000Z,1005
2022-11-19T05:30:49.000Z,1005
2022-11-19T05:32:02.000Z,1005
2022-11-19T05:33:13.000Z,1005
2022-11-19T05:34:24.000Z,1005
2022-11-19T05:35:36.000Z,1005.1
2022-11-19T05:36:48.000Z,1005.1
2022-11-19T05:38:01.000Z,1005.1
2022-11-19T05:39:13.000Z,1005.1
2022-11-19T05:40:25.000Z,1005.1
2022-11-19T05:41:37.000Z,1005.1
2022-11-19T05:42:49.000Z,1005.1
2022-11-19T05:44:02.000Z,1005.1
2022-11-19T05:45:14.000Z,1005.2
2022-11-19T05:46:26.000Z,1005.2
2022-11-19T05:47:38.000Z,1005.2
2022-11-19T05:48:50.000Z,1005.2
2022-11-19T05:50:02.000Z,1005.2
2022-11-19T05:51:14.000Z,1005.2
2022-11-19T05:52:26.000Z,1005.2
2022-11-19T05:53:38.000Z,1005.2
2022-11-19T05:54:50.000Z,1005.2
2022-11-19T05:56:02.000Z,1005.3
2022-11-19T05:57:15.000Z,1005.2
2022-11-19T05:58:26.000Z,1005.2
2022-11-19T05:59:37.000Z,1005.2
2022-11-19T06:00:49.000Z,1005.2
2022-11-19T06:02:01.000Z,1005.2
2022-11-19T06:03:14.000Z,1005.2
2022-11-19T06:04:26.000Z,1005.2
2022-11-19T06:05:38.000Z,1005.2
2022-11-19T06:06:50.000Z,1005.2
2022-11-19T06:08:02.000Z,1005.2
2022-11-19T06:09:15.000Z,1005.1
2022-11-19T06:10:27.000Z,1005.2
2022-11-19T06:11:39.000Z,1005.2
2022-11-19T06:12:51.000Z,1005.3
2022-11-19T06:14:03.000Z,1005.2
2022-11-19T06:15:14.000Z,1005.2
2022-11-19T06:16:27.000Z,1005.3
2022-11-19T06:17:39.000Z,1005.3
2022-11-19T06:18:51.000Z,1005.3
2022-11-19T06:20:03.000Z,1005.3
2022-11-19T06:21:15.000Z,1005.3
2022-11-19T06:22:28.000Z,1005.3
2022-11-19T06:23:39.000Z,1005.3
2022-11-19T06:24:50.000Z,1005.3
2022-11-19T06:26:01.000Z,1005.4
2022-11-19T06:27:12.000Z,1005.3
2022-11-19T06:28:24.000Z,1005.3
2022-11-19T06:29:35.000Z,1005.4
2022-11-19T06:30:47.000Z,1005.3
2022-11-19T06:31:59.000Z,1005.4
2022-11-19T06:33:11.000Z,1005.5
2022-11-19T06:34:24.000Z,1005.5
2022-11-19T06:35:36.000Z,1005.5
2022-11-19T06:36:48.000Z,1005.5
2022-11-19T06:38:00.000Z,1005.5
2022-11-19T06:39:12.000Z,1005.5
2022-11-19T06:40:24.000Z,1005.5
2022-11-19T06:41:37.000Z,1005.5
2022-11-19T06:42:49.000Z,1005.6
2022-11-19T06:44:01.000Z,1005.6
2022-11-19T06:45:12.000Z,1005.6
2022-11-19T06:46:24.000Z,1005.6
2022-11-19T06:47:37.000Z,1005.6
2022-11-19T06:48:49.000Z,1005.6
2022-11-19T06:50:01.000Z,1005.6
2022-11-19T06:51:13.000Z,1005.5
2022-11-19T06:52:25.000Z,1005.5
2022-11-19T06:53:37.000Z,1005.6
2022-11-19T06:54:48.000Z,1005.5
2022-11-19T06:55:59.000Z,1005.6
2022-11-19T06:57:10.000Z,1005.6
2022-11-19T06:58:21.000Z,1005.5
2022-11-19T06:59:33.000Z,1005.6
2022-11-19T07:00:45.000Z,1005.6
2022-11-19T07:01:57.000Z,1005.6
2022-11-19T07:03:09.000Z,1005.5
2022-11-19T07:04:21.000Z,1005.6
2022-11-19T07:05:34.000Z,1005.6
2022-11-19T07:06:46.000Z,1005.6
2022-11-19T07:07:58.000Z,1005.6
2022-11-19T07:09:10.000Z,1005.6
2022-11-19T07:10:22.000Z,1005.7
2022-11-19T07:11:34.000Z,1005.7
2022-11-19T07:12:47.000Z,1005.7
2022-11-19T07:13:59.000Z,1005.7
2022-11-19T07:15:10.000Z,1005.7
2022-11-19T07:16:22.000Z,1005.6
2022-11-19T07:17:34.000Z,1005.7
2022-11-19T07:18:47.000Z,1005.7
2022-11-19T07:19:59.000Z,1005.7
2022-11-19T07:21:11.000Z,1005.7
2022-11-19T07:22:23.000Z,1005.8
2022-11-19T07:23:34.000Z,1005.7
2022-11-19T07:24:46.000Z,1005.8
2022-11-19T07:25:57.000Z,1005.8
2022-11-19T07:27:08.000Z,1005.8
2022-11-19T07:28:20.000Z,1005.9
2022-11-19T07:29:32.000Z,1005.8
2022-11-19T07:30:44.000Z,1005.8
2022-11-19T07:31:57.000Z,1005.8
2022-11-19T07:33:08.000Z,1005.8
2022-11-19T07:34:20.000Z,1005.8
2022-11-19T07:35:32.000Z,1005.8
2022-11-19T07:36:44.000Z,1005.8
2022-11-19T07:37:57.000Z,1005.9
2022-11-19T07:39:09.000Z,1005.9
2022-11-19T07:40:21.000Z,1005.8
2022-11-19T07:42:45.000Z,1005.9
2022-11-19T07:43:58.000Z,1005.9
2022-11-19T07:45:10.000Z,1006
2022-11-19T07:46:22.000Z,1005.9
2022-11-19T07:47:34.000Z,1005.9
2022-11-19T07:48:45.000Z,1006
2022-11-19T07:49:57.000Z,1005.9
2022-11-19T07:51:10.000Z,1005.9
2022-11-19T07:52:21.000Z,1005.9
2022-11-19T07:53:32.000Z,1005.9
2022-11-19T07:54:44.000Z,1006
2022-11-19T07:55:55.000Z,1006
2022-11-19T07:57:07.000Z,1006
2022-11-19T07:58:19.000Z,1006
2022-11-19T07:59:31.000Z,1006
2022-11-19T08:00:43.000Z,1006
2022-11-19T08:01:55.000Z,1006
2022-11-19T08:03:08.000Z,1006
2022-11-19T08:04:20.000Z,1006
2022-11-19T08:05:32.000Z,1006.1
2022-11-19T08:06:44.000Z,1005.9
2022-11-19T08:07:56.000Z,1006
2022-11-19T08:09:09.000Z,1005.9
2022-11-19T08:10:21.000Z,1006
2022-11-19T08:11:33.000Z,1006
2022-11-19T08:12:44.000Z,1005.9
2022-11-19T08:13:56.000Z,1005.9
2022-11-19T08:15:08.000Z,1006
2022-11-19T08:16:21.000Z,1006
2022-11-19T08:17:33.000Z,1006
2022-11-19T08:18:45.000Z,1006
2022-11-19T08:19:57.000Z,1006
2022-11-19T08:21:09.000Z,1006
2022-11-19T08:22:21.000Z,1006.1
2022-11-19T08:23:32.000Z,1006.1
2022-11-19T08:24:43.000Z,1006
2022-11-19T08:25:54.000Z,1006
2022-11-19T08:27:06.000Z,1006
2022-11-19T08:28:19.000Z,1006.1
2022-11-19T08:29:31.000Z,1006.1
2022-11-19T08:30:43.000Z,1006.1
2022-11-19T08:31:55.000Z,1006.1
2022-11-19T08:33:07.000Z,1006.1
2022-11-19T08:34:19.000Z,1006
2022-11-19T08:35:32.000Z,1006
2022-11-19T08:36:44.000Z,1006
2022-11-19T08:37:56.000Z,1006
2022-11-19T08:39:08.000Z,1006
2022-11-19T08:40:20.000Z,1005.9
2022-11-19T08:41:32.000Z,1005.9
2022-11-19T08:42:44.000Z,1005.9
2022-11-19T08:43:56.000Z,1006
2022-11-19T08:45:08.000Z,1005.9
2022-11-19T08:46:20.000Z,1005.9
2022-11-19T08:47:33.000Z,1005.9
2022-11-19T08:48:45.000Z,1005.9
2022-11-19T08:49:56.000Z,1005.8
2022-11-19T08:51:07.000Z,1005.8
2022-11-19T08:52:18.000Z,1005.9
2022-11-19T08:53:30.000Z,1005.9
2022-11-19T08:54:42.000Z,1005.8
2022-11-19T08:55:54.000Z,1005.8
2022-11-19T08:57:06.000Z,1005.8
2022-11-19T08:58:18.000Z,1005.7
2022-11-19T08:59:30.000Z,1005.7
2022-11-19T09:00:43.000Z,1005.8
2022-11-19T09:01:55.000Z,1005.7
2022-11-19T09:03:07.000Z,1005.7
2022-11-19T09:04:19.000Z,1005.8
2022-11-19T09:05:31.000Z,1005.8
2022-11-19T09:06:44.000Z,1005.8
2022-11-19T09:07:56.000Z,1005.8
2022-11-19T09:09:08.000Z,1005.8
2022-11-19T09:10:19.000Z,1005.8
2022-11-19T09:11:31.000Z,1005.9
2022-11-19T09:12:43.000Z,1005.8
2022-11-19T09:13:56.000Z,1005.8
2022-11-19T09:15:08.000Z,1005.8
2022-11-19T09:16:20.000Z,1005.8
2022-11-19T09:17:31.000Z,1005.8
2022-11-19T09:18:43.000Z,1005.8
2022-11-19T09:21:06.000Z,1005.8
2022-11-19T09:22:18.000Z,1005.8
2022-11-19T09:23:30.000Z,1005.9
2022-11-19T09:24:42.000Z,1005.9
2022-11-19T09:25:55.000Z,1005.8
2022-11-19T09:26:36.000Z,1005.8
2022-11-19T09:27:07.000Z,1005.8
2022-11-19T09:29:31.640Z,1005.9
2022-11-19T09:30:43.000Z,1005.9
2022-11-19T09:31:56.000Z,1006
2022-11-19T09:33:08.000Z,1005.9
2022-11-19T09:34:20.000Z,1005.9
2022-11-19T09:35:00.000Z,1005.9
2022-11-19T09:35:32.000Z,1005.9
2022-11-19T09:36:43.000Z,1005.8
2022-11-19T09:37:55.000Z,1005.8
2022-11-19T09:39:08.000Z,1005.8
2022-11-19T09:40:20.000Z,1005.8
2022-11-19T09:41:32.000Z,1005.8
2022-11-19T09:42:44.000Z,1005.8
2022-11-19T09:43:56.000Z,1005.8
2022-11-19T09:45:08.000Z,1005.8
2022-11-19T09:47:31.000Z,1005.9
2022-11-19T09:48:43.000Z,1005.9
2022-11-19T09:49:55.000Z,1005.9
2022-11-19T09:51:08.000Z,1005.9
2022-11-19T09:52:20.000Z,1005.9
2022-11-19T09:53:00.000Z,1005.9
2022-11-19T09:53:32.000Z,1005.9
2022-11-19T09:54:44.000Z,1005.9
2022-11-19T09:57:08.000Z,1005.8
2022-11-19T09:58:21.000Z,1005.9
2022-11-19T09:59:33.000Z,1005.9
2022-11-19T10:00:45.000Z,1005.9
2022-11-19T10:01:57.000Z,1005.8
2022-11-19T10:02:37.000Z,1005.9
2022-11-19T10:03:09.000Z,1005.9
2022-11-19T10:04:21.000Z,1005.8
2022-11-19T10:05:33.000Z,1005.8
2022-11-19T10:06:45.000Z,1005.8
2022-11-19T10:07:57.000Z,1005.8
2022-11-19T10:09:09.000Z,1005.8
2022-11-19T10:10:20.000Z,1005.8
2022-11-19T10:11:32.000Z,1005.8
2022-11-19T10:12:44.000Z,1005.7
2022-11-19T10:13:56.000Z,1005.7
2022-11-19T10:15:08.000Z,1005.8
2022-11-19T10:16:20.000Z,1005.7
2022-11-19T10:17:33.000Z,1005.7
2022-11-19T10:18:45.000Z,1005.7
2022-11-19T10:19:57.000Z,1005.8
2022-11-19T10:21:09.000Z,1005.8
2022-11-19T10:22:21.000Z,1005.7
2022-11-19T10:23:34.000Z,1005.7
2022-11-19T10:24:46.000Z,1005.8
2022-11-19T10:25:58.000Z,1005.8
2022-11-19T10:27:09.000Z,1005.7
2022-11-19T10:28:21.000Z,1005.7
2022-11-19T10:29:33.000Z,1005.7
2022-11-19T10:30:46.000Z,1005.6
2022-11-19T10:31:58.000Z,1005.7
2022-11-19T10:33:10.000Z,1005.7
2022-11-19T10:34:22.000Z,1005.7
2022-11-19T10:35:34.000Z,1005.7
2022-11-19T10:36:46.000Z,1005.7
2022-11-19T10:37:57.000Z,1005.7
2022-11-19T10:39:08.000Z,1005.7
2022-11-19T10:40:19.000Z,1005.6
2022-11-19T10:41:30.000Z,1005.7
2022-11-19T10:42:42.000Z,1005.6
2022-11-19T10:43:54.000Z,1005.7
2022-11-19T10:45:05.000Z,1005.6
2022-11-19T10:46:16.000Z,1005.7
2022-11-19T10:47:28.000Z,1005.6
2022-11-19T10:48:41.000Z,1005.6
2022-11-19T10:49:53.000Z,1005.6
2022-11-19T10:51:05.000Z,1005.5
2022-11-19T10:52:17.000Z,1005.5
2022-11-19T10:53:29.000Z,1005.5
2022-11-19T10:54:41.000Z,1005.5
2022-11-19T10:55:54.000Z,1005.5
2022-11-19T10:57:06.000Z,1005.6
2022-11-19T10:58:18.000Z,1005.5
2022-11-19T10:59:30.000Z,1005.5
2022-11-19T11:00:42.000Z,1005.5
2022-11-19T11:01:54.000Z,1005.5
2022-11-19T11:03:06.000Z,1005.5
2022-11-19T11:04:18.000Z,1005.5
2022-11-19T11:05:30.000Z,1005.5
2022-11-19T11:06:42.000Z,1005.5
2022-11-19T11:07:55.000Z,1005.6
2022-11-19T11:09:07.000Z,1005.5
2022-11-19T11:10:18.000Z,1005.5
2022-11-19T11:11:29.000Z,1005.4
2022-11-19T11:12:41.000Z,1005.5
2022-11-19T11:13:53.000Z,1005.5
2022-11-19T11:15:06.000Z,1005.5
2022-11-19T11:16:18.000Z,1005.5
2022-11-19T11:17:30.000Z,1005.5
2022-11-19T11:18:42.000Z,1005.4
2022-11-19T11:19:54.000Z,1005.4
2022-11-19T11:21:07.000Z,1005.5
2022-11-19T11:22:19.000Z,1005.4
2022-11-19T11:23:31.000Z,1005.4
2022-11-19T11:25:55.000Z,1005.3
2022-11-19T11:27:07.000Z,1005.2
2022-11-19T11:28:19.000Z,1005.1
2022-11-19T11:29:31.000Z,1005.2
2022-11-19T11:30:43.000Z,1005.2
2022-11-19T11:31:24.000Z,1005.3
2022-11-19T11:31:55.000Z,1005.2
2022-11-19T11:33:07.000Z,1005.2
2022-11-19T11:34:19.000Z,1005.2
2022-11-19T11:35:30.000Z,1005.2
2022-11-19T11:36:41.000Z,1005.1
2022-11-19T11:37:52.000Z,1005.2
2022-11-19T11:39:03.000Z,1005.2
2022-11-19T11:40:15.000Z,1005.2
2022-11-19T11:41:26.000Z,1005.2
2022-11-19T11:42:38.000Z,1005.2
2022-11-19T11:43:50.000Z,1005.2
2022-11-19T11:45:02.000Z,1005.2
2022-11-19T11:46:15.000Z,1005.2
2022-11-19T11:47:27.000Z,1005.1
2022-11-19T11:48:39.000Z,1005.1
2022-11-19T11:49:51.000Z,1005.1
2022-11-19T11:52:16.000Z,1005
2022-11-19T11:53:28.000Z,1005.1
2022-11-19T11:54:40.000Z,1005.1
2022-11-19T11:55:52.000Z,1005
2022-11-19T11:57:03.000Z,1005
2022-11-19T11:57:45.000Z,1005.1
2022-11-19T11:58:15.000Z,1005
2022-11-19T11:59:28.000Z,1005
2022-11-19T12:00:40.000Z,1005
2022-11-19T12:01:52.000Z,1005
2022-11-19T12:03:04.000Z,1005
2022-11-19T12:04:16.000Z,1005
2022-11-19T12:05:28.000Z,1004.9
2022-11-19T12:06:39.000Z,1004.9
2022-11-19T12:07:51.000Z,1004.9
2022-11-19T12:09:03.000Z,1005
2022-11-19T12:10:15.000Z,1005
2022-11-19T12:11:28.000Z,1005
2022-11-19T12:12:40.000Z,1005
2022-11-19T12:13:52.000Z,1005
2022-11-19T12:15:04.000Z,1005
2022-11-19T12:16:16.000Z,1004.9
2022-11-19T12:17:28.000Z,1005
2022-11-19T12:18:41.000Z,1004.9
2022-11-19T12:19:53.000Z,1004.8
2022-11-19T12:21:05.000Z,1004.8
2022-11-19T12:22:16.000Z,1004.8
2022-11-19T12:23:28.000Z,1004.8
2022-11-19T12:24:41.000Z,1004.8
2022-11-19T12:25:53.000Z,1004.8
2022-11-19T12:27:05.000Z,1004.7
2022-11-19T12:28:17.000Z,1004.8
2022-11-19T12:29:29.000Z,1004.7
2022-11-19T12:30:41.000Z,1004.7
2022-11-19T12:31:52.000Z,1004.7
2022-11-19T12:33:03.000Z,1004.8
2022-11-19T12:34:15.000Z,1004.8
2022-11-19T12:35:26.000Z,1004.8
2022-11-19T12:36:38.000Z,1004.8
2022-11-19T12:37:50.000Z,1004.7
2022-11-19T12:39:02.000Z,1004.7
2022-11-19T12:40:14.000Z,1004.7
2022-11-19T12:41:26.000Z,1004.7
2022-11-19T12:42:38.000Z,1004.7
2022-11-19T12:43:51.000Z,1004.8
2022-11-19T12:45:03.000Z,1004.8
2022-11-19T12:46:15.000Z,1004.7
2022-11-19T12:47:27.000Z,1004.8
2022-11-19T12:48:39.000Z,1004.8
2022-11-19T12:49:52.000Z,1004.8
2022-11-19T12:51:04.000Z,1004.8
2022-11-19T12:52:15.000Z,1004.7
2022-11-19T12:53:27.000Z,1004.8
2022-11-19T12:54:39.000Z,1004.8
2022-11-19T12:55:51.000Z,1004.8
2022-11-19T12:57:04.000Z,1004.8
2022-11-19T12:58:16.000Z,1004.8
2022-11-19T12:59:28.000Z,1004.8
2022-11-19T13:00:39.000Z,1004.8
2022-11-19T13:01:50.000Z,1004.7
2022-11-19T13:04:13.000Z,1004.8
2022-11-19T13:05:25.000Z,1004.7
2022-11-19T13:06:37.000Z,1004.7
2022-11-19T13:07:49.000Z,1004.8
2022-11-19T13:09:43.000Z,1004.8
2022-11-19T13:11:26.000Z,1004.7
2022-11-19T13:12:38.000Z,1004.8
2022-11-19T13:13:50.000Z,1004.7
2022-11-19T13:15:03.000Z,1004.7
2022-11-19T13:15:43.000Z,1004.7
2022-11-19T13:16:15.000Z,1004.7
2022-11-19T13:16:55.000Z,1004.7
2022-11-19T13:17:27.000Z,1004.7
2022-11-19T13:18:39.000Z,1004.7
2022-11-19T13:19:50.000Z,1004.8
2022-11-19T13:21:02.000Z,1004.7
2022-11-19T13:22:15.000Z,1004.7
2022-11-19T13:23:27.000Z,1004.7
2022-11-19T13:24:39.000Z,1004.7
2022-11-19T13:25:51.000Z,1004.7
2022-11-19T13:27:03.000Z,1004.7
2022-11-19T13:28:15.000Z,1004.7
2022-11-19T13:29:26.000Z,1004.7
2022-11-19T13:30:38.000Z,1004.7
2022-11-19T13:33:02.000Z,1004.7
2022-11-19T13:34:15.000Z,1004.7
2022-11-19T13:35:27.000Z,1004.6
2022-11-19T13:36:39.000Z,1004.7
2022-11-19T13:37:51.000Z,1004.6
2022-11-19T13:38:31.000Z,1004.7
2022-11-19T13:39:03.000Z,1004.6
2022-11-19T13:40:15.000Z,1004.7
2022-11-19T13:41:28.000Z,1004.7
2022-11-19T13:42:40.000Z,1004.7
2022-11-19T13:43:52.000Z,1004.6
2022-11-19T13:45:03.000Z,1004.7
2022-11-19T13:46:15.000Z,1004.6
2022-11-19T13:47:28.000Z,1004.7
2022-11-19T13:48:40.000Z,1004.6
2022-11-19T13:49:52.000Z,1004.6
2022-11-19T13:51:04.000Z,1004.6
2022-11-19T13:52:16.000Z,1004.6
2022-11-19T13:53:28.000Z,1004.6
2022-11-19T13:54:40.000Z,1004.6
2022-11-19T13:55:51.000Z,1004.7
2022-11-19T13:57:02.000Z,1004.7
2022-11-19T13:58:13.000Z,1004.6
2022-11-19T13:59:25.000Z,1004.6
2022-11-19T14:00:36.000Z,1004.7
2022-11-19T14:01:48.000Z,1004.6
2022-11-19T14:03:00.000Z,1004.6
2022-11-19T14:04:12.000Z,1004.7
2022-11-19T14:05:24.000Z,1004.7
2022-11-19T14:06:37.000Z,1004.7
2022-11-19T14:07:49.000Z,1004.7
2022-11-19T14:09:01.000Z,1004.7
2022-11-19T14:10:13.000Z,1004.7
2022-11-19T14:11:25.000Z,1004.8
2022-11-19T14:12:38.000Z,1004.8
2022-11-19T14:13:50.000Z,1004.7
2022-11-19T14:15:02.000Z,1004.7
2022-11-19T14:16:13.000Z,1004.8
2022-11-19T14:17:25.000Z,1004.8
2022-11-19T14:18:37.000Z,1004.8
2022-11-19T14:19:50.000Z,1004.8
2022-11-19T14:21:02.000Z,1004.8
2022-11-19T14:22:14.000Z,1004.8
2022-11-19T14:23:26.000Z,1004.8
2022-11-19T14:24:37.000Z,1004.8
2022-11-19T14:25:50.000Z,1004.8
2022-11-19T14:27:02.000Z,1004.7
2022-11-19T14:28:13.000Z,1004.7
2022-11-19T14:29:24.000Z,1004.7
2022-11-19T14:30:36.000Z,1004.7
2022-11-19T14:31:49.000Z,1004.7
2022-11-19T14:33:01.000Z,1004.7
2022-11-19T14:34:13.000Z,1004.7
2022-11-19T14:35:25.000Z,1004.7
2022-11-19T14:36:37.000Z,1004.7
2022-11-19T14:37:49.000Z,1004.8
2022-11-19T14:39:02.000Z,1004.8
2022-11-19T14:40:14.000Z,1004.8
2022-11-19T14:41:26.000Z,1004.8
2022-11-19T14:42:38.000Z,1004.8
2022-11-19T14:43:50.000Z,1004.7
2022-11-19T14:45:02.000Z,1004.8
2022-11-19T14:46:14.000Z,1004.8
2022-11-19T14:47:26.000Z,1004.7
2022-11-19T14:48:38.000Z,1004.8
2022-11-19T14:49:50.000Z,1004.7
2022-11-19T14:51:03.000Z,1004.8
2022-11-19T14:52:15.000Z,1004.7
2022-11-19T14:53:26.000Z,1004.7
2022-11-19T14:54:37.000Z,1004.7
2022-11-19T14:55:49.000Z,1004.7
2022-11-19T14:57:01.000Z,1004.7
2022-11-19T14:58:12.000Z,1004.7
2022-11-19T14:59:24.000Z,1004.7
2022-11-19T15:00:36.000Z,1004.7
2022-11-19T15:01:48.000Z,1004.7
2022-11-19T15:03:00.000Z,1004.7
2022-11-19T15:04:13.000Z,1004.7
2022-11-19T15:05:25.000Z,1004.7
2022-11-19T15:06:37.000Z,1004.7
2022-11-19T15:07:49.000Z,1004.7
2022-11-19T15:09:01.000Z,1004.7
2022-11-19T15:10:14.000Z,1004.7
2022-11-19T15:11:26.000Z,1004.7
2022-11-19T15:12:38.000Z,1004.6
2022-11-19T15:13:49.000Z,1004.5
2022-11-19T15:15:01.000Z,1004.6